createdAt,value
2023-02-26T00:25:35.955Z,1.17
2023-02-26T00:26:36.074Z,1.33
2023-02-26T00:27:36.215Z,1.16
2023-02-26T00:28:36.312Z,1.26
2023-02-26T00:29:36.418Z,0.83
2023-02-26T00:30:36.575Z,1.28
2023-02-26T00:31:36.658Z,1.43
2023-02-26T00:32:36.784Z,1.25
2023-02-26T00:33:36.872Z,1.44
2023-02-26T00:34:36.977Z,1.14
2023-02-26T00:35:37.081Z,1.40
2023-02-26T00:36:37.188Z,1.15
2023-02-26T01:38:45.948Z,3.29
2023-02-26T01:39:46.134Z,3.13
2023-02-26T01:40:46.308Z,3.56
2023-02-26T01:41:46.464Z,3.65
2023-02-26T01:42:46.677Z,3.52
2023-02-26T01:43:46.785Z,3.57
2023-02-26T01:44:46.989Z,3.89
2023-02-26T01:45:47.198Z,3.91
2023-02-26T01:46:47.400Z,3.19
2023-02-26T01:47:47.590Z,3.06
2023-02-26T01:48:47.778Z,3.56
2023-02-26T01:49:47.954Z,3.22
2023-02-26T01:50:48.086Z,3.02
2023-02-26T01:51:48.281Z,2.95
2023-02-26T01:52:48.494Z,2.79
2023-02-26T01:53:48.696Z,2.50
2023-02-26T01:54:48.903Z,2.66
2023-02-26T01:55:49.192Z,2.64
2023-02-26T01:56:49.470Z,2.70
2023-02-26T01:57:49.693Z,2.56
2023-02-26T01:58:49.974Z,2.69
2023-02-26T01:59:50.225Z,2.19
2023-02-26T02:00:50.481Z,2.46
2023-02-26T02:01:50.795Z,2.15
2023-02-26T02:02:51.238Z,2.00
2023-02-26T02:03:51.312Z,2.29
2023-02-26T02:04:51.579Z,2.85
2023-02-26T02:05:51.732Z,2.67
2023-02-26T02:06:51.921Z,2.58
2023-02-26T02:07:52.104Z,2.30
2023-02-26T02:08:52.307Z,1.94
2023-02-26T02:09:52.490Z,1.60
2023-02-26T02:10:52.661Z,1.99
2023-02-26T02:11:52.838Z,1.82
2023-02-26T02:12:53.037Z,1.79
2023-02-26T02:13:53.223Z,2.16
2023-02-26T02:14:53.399Z,2.04
2023-02-26T02:15:53.564Z,1.89
2023-02-26T02:16:53.731Z,1.82
2023-02-26T02:17:53.894Z,1.62
2023-02-26T02:18:54.043Z,1.69
2023-02-26T02:19:54.258Z,2.33
2023-02-26T02:20:54.463Z,1.81
2023-02-26T02:21:54.657Z,1.95
2023-02-26T02:22:54.842Z,1.88
2023-02-26T02:23:55.008Z,1.90
2023-02-26T02:24:55.181Z,2.11
2023-02-26T02:25:55.343Z,2.24
2023-02-26T02:26:55.488Z,1.99
2023-02-26T02:27:55.641Z,1.94
2023-02-26T03:32:06.197Z,0.99
2023-02-26T03:33:06.313Z,1.50
2023-02-26T03:34:06.563Z,0.87
2023-02-26T03:35:06.799Z,0.94
2023-02-26T03:36:06.923Z,0.97
2023-02-26T03:37:07.073Z,0.94
2023-02-26T03:38:07.257Z,0.93
2023-02-26T03:39:07.439Z,0.87
2023-02-26T03:40:07.629Z,0.90
2023-02-26T03:41:07.811Z,0.96
2023-02-26T03:42:08.000Z,0.63
2023-02-26T03:43:08.198Z,1.02
2023-02-26T04:02:11.462Z,1.02
2023-02-26T04:03:11.656Z,0.90
2023-02-26T04:04:11.937Z,0.95
2023-02-26T04:05:12.086Z,0.87
2023-02-26T04:06:12.290Z,0.66
2023-02-26T04:07:12.483Z,0.90
2023-02-26T04:08:12.663Z,0.86
2023-02-26T04:09:14.210Z,0.93
2023-02-26T04:10:12.969Z,0.75
2023-02-26T04:11:13.119Z,0.89
2023-02-26T04:12:13.277Z,1.29
2023-02-26T04:13:13.409Z,0.78
2023-02-26T04:14:13.543Z,0.92
2023-02-26T04:15:13.693Z,0.83
2023-02-26T04:16:13.862Z,0.81
2023-02-26T04:17:13.947Z,1.01
2023-02-26T04:18:14.077Z,0.58
2023-02-26T04:19:14.186Z,0.88
2023-02-26T04:20:14.317Z,1.10
2023-02-26T04:21:14.444Z,0.69
2023-02-26T04:22:14.569Z,0.83
2023-02-26T04:23:14.685Z,1.09
2023-02-26T04:24:14.803Z,1.06
2023-02-26T04:25:14.925Z,0.94
2023-02-26T04:26:15.068Z,0.97
2023-02-26T04:27:15.159Z,0.76
2023-02-26T04:28:15.311Z,0.79
2023-02-26T04:29:15.387Z,1.22
2023-02-26T04:30:15.489Z,1.01
2023-02-26T04:31:15.651Z,0.99
2023-02-26T04:32:15.767Z,0.99
2023-02-26T04:33:15.817Z,1.11
2023-02-26T04:34:15.921Z,1.30
2023-02-26T04:35:16.032Z,0.85
2023-02-26T04:36:16.137Z,1.00
2023-02-26T04:37:16.242Z,1.08
2023-02-26T04:38:16.347Z,1.02
2023-02-26T04:39:16.460Z,0.84
2023-02-26T04:40:16.568Z,1.23
2023-02-26T04:41:17.691Z,0.74
2023-02-26T04:42:16.798Z,1.36
2023-02-26T04:43:16.920Z,0.90
2023-02-26T04:44:17.036Z,0.86
2023-02-26T04:45:17.156Z,1.15
2023-02-26T04:46:17.328Z,1.00
2023-02-26T04:47:17.411Z,0.95
2023-02-26T04:48:17.547Z,1.13
2023-02-26T04:49:17.701Z,1.35
2023-02-26T04:50:17.844Z,1.04
2023-02-26T04:51:17.979Z,0.94
2023-02-26T04:52:18.130Z,1.19
2023-02-26T04:53:18.250Z,1.18
2023-02-26T04:54:18.384Z,1.07
2023-02-26T04:55:18.568Z,0.93
2023-02-26T04:56:18.812Z,1.03
2023-02-26T04:57:18.938Z,1.36
2023-02-26T04:58:19.098Z,1.42
2023-02-26T04:59:19.226Z,1.13
2023-02-26T05:00:19.357Z,1.75
2023-02-26T05:01:19.531Z,1.62
2023-02-26T05:02:19.705Z,2.07
2023-02-26T05:03:19.892Z,1.60
2023-02-26T05:04:20.080Z,1.39
2023-02-26T05:05:20.199Z,1.04
2023-02-26T05:06:20.332Z,0.99
2023-02-26T05:07:20.545Z,1.18
2023-02-26T05:08:20.767Z,0.89
2023-02-26T05:09:20.996Z,1.10
2023-02-26T05:10:21.249Z,0.93
2023-02-26T05:11:21.460Z,1.04
2023-02-26T05:12:21.608Z,1.05
2023-02-26T05:13:21.766Z,0.94
2023-02-26T05:14:21.974Z,0.81
2023-02-26T05:15:22.102Z,1.33
2023-02-26T05:16:22.294Z,1.26
2023-02-26T05:17:22.373Z,1.00
2023-02-26T05:18:22.539Z,1.19
2023-02-26T05:19:22.685Z,1.23
2023-02-26T05:20:22.833Z,1.29
2023-02-26T05:21:25.237Z,1.19
2023-02-26T05:22:23.182Z,1.08
2023-02-26T05:23:23.323Z,1.18
2023-02-26T05:24:23.480Z,0.98
2023-02-26T05:25:23.653Z,1.13
2023-02-26T05:26:24.397Z,1.27
2023-02-26T05:27:23.923Z,0.83
2023-02-26T05:28:24.086Z,1.15
2023-02-26T05:29:24.231Z,1.06
2023-02-26T05:41:26.019Z,1.15
2023-02-26T05:42:26.178Z,1.12
2023-02-26T05:43:26.310Z,1.08
2023-02-26T05:44:26.447Z,0.86
2023-02-26T05:45:26.587Z,0.79
2023-02-26T05:46:27.106Z,1.02
2023-02-26T05:47:26.859Z,0.99
2023-02-26T05:48:27.001Z,0.96
2023-02-26T05:49:27.127Z,1.16
2023-02-26T05:50:27.275Z,1.10
2023-02-26T05:51:27.419Z,0.91
2023-02-26T05:52:27.548Z,1.08
2023-02-26T05:53:27.714Z,0.77
2023-02-26T05:54:27.858Z,1.25
2023-02-26T05:55:27.968Z,0.94
2023-02-26T05:56:28.093Z,0.88
2023-02-26T05:57:28.247Z,1.08
2023-02-26T05:58:28.352Z,1.01
2023-02-26T05:59:28.493Z,0.91
2023-02-26T06:00:28.632Z,1.44
2023-02-26T06:01:28.775Z,1.09
2023-02-26T06:02:28.908Z,1.05
2023-02-26T06:03:29.053Z,0.92
2023-02-26T06:04:29.201Z,0.90
2023-02-26T06:05:29.363Z,1.30
2023-02-26T06:06:29.504Z,0.96
2023-02-26T06:07:29.658Z,1.02
2023-02-26T06:08:29.820Z,1.25
2023-02-26T06:09:29.974Z,0.94
2023-02-26T06:10:30.131Z,1.00
2023-02-26T06:11:31.750Z,1.12
2023-02-26T06:12:30.465Z,1.14
2023-02-26T06:13:30.626Z,1.34
2023-02-26T06:14:30.785Z,1.43
2023-02-26T06:15:30.950Z,1.72
2023-02-26T06:16:31.131Z,1.85
2023-02-26T06:17:31.271Z,2.00
2023-02-26T06:18:31.431Z,1.91
2023-02-26T06:19:31.586Z,1.88
2023-02-26T06:20:31.724Z,1.61
2023-02-26T06:21:31.859Z,1.26
2023-02-26T06:22:32.014Z,1.23
2023-02-26T06:23:32.163Z,1.17
2023-02-26T06:24:32.324Z,1.59
2023-02-26T06:25:32.483Z,1.50
2023-02-26T06:26:32.635Z,1.22
2023-02-26T06:27:32.807Z,1.17
2023-02-26T06:28:32.958Z,1.13
2023-02-26T06:30:33.263Z,0.96
2023-02-26T06:49:36.040Z,1.18
2023-02-26T06:50:36.151Z,1.15
2023-02-26T06:51:36.309Z,1.35
2023-02-26T06:52:36.493Z,1.05
2023-02-26T06:53:36.775Z,1.01
2023-02-26T06:54:36.810Z,1.91
2023-02-26T07:39:46.139Z,1.38
2023-02-26T07:40:46.390Z,1.37
2023-02-26T07:41:46.629Z,1.14
2023-02-26T07:42:46.870Z,1.17
2023-02-26T07:43:47.110Z,1.61
2023-02-26T07:44:47.316Z,1.94
2023-02-26T07:45:47.548Z,1.35
2023-02-26T07:46:47.715Z,1.32
2023-02-26T07:47:47.912Z,1.39
2023-02-26T07:48:48.106Z,1.25
2023-02-26T07:49:48.302Z,1.80
2023-02-26T07:50:48.522Z,1.47
2023-02-26T07:51:48.682Z,2.69
2023-02-26T07:52:48.905Z,3.34
2023-02-26T07:53:49.141Z,2.44
2023-02-26T07:54:49.366Z,2.09
2023-02-26T07:55:49.593Z,1.73
2023-02-26T07:56:49.792Z,1.59
2023-02-26T07:57:50.017Z,1.80
2023-02-26T07:58:50.208Z,1.57
2023-02-26T07:59:50.408Z,1.16
2023-02-26T08:00:50.618Z,1.24
2023-02-26T08:01:50.833Z,1.14
2023-02-26T08:03:51.232Z,1.33
2023-02-26T08:04:51.451Z,1.43
2023-02-26T08:05:51.687Z,1.16
2023-02-26T08:26:56.095Z,1.19
2023-02-26T08:27:56.285Z,0.93
2023-02-26T08:57:02.101Z,2.09
2023-02-26T08:58:02.317Z,1.74
2023-02-26T08:59:02.536Z,1.41
2023-02-26T09:16:06.027Z,2.40
2023-02-26T09:17:06.197Z,3.60
2023-02-26T10:05:16.094Z,2.16
2023-02-26T10:06:16.283Z,3.41
2023-02-26T10:07:16.433Z,3.57
2023-02-26T10:08:16.639Z,2.41
2023-02-26T10:09:16.822Z,2.62
2023-02-26T10:10:17.006Z,3.99
2023-02-26T10:11:17.149Z,4.12
2023-02-26T10:12:17.315Z,3.50
2023-02-26T10:13:17.506Z,3.48
2023-02-26T10:14:17.694Z,3.47
2023-02-26T10:15:17.872Z,2.80
2023-02-26T10:16:18.072Z,2.51
2023-02-26T10:17:18.195Z,1.79
2023-02-26T10:18:18.419Z,2.66
2023-02-26T10:19:18.609Z,3.05
2023-02-26T10:20:18.870Z,2.44
2023-02-26T10:21:19.057Z,2.82
2023-02-26T10:22:19.257Z,2.01
2023-02-26T10:23:19.429Z,1.47
2023-02-26T10:24:19.577Z,1.48
2023-02-26T11:00:26.086Z,1.06
2023-02-26T11:01:26.503Z,1.44
2023-02-26T11:02:26.526Z,1.18
2023-02-26T11:03:26.546Z,1.72
2023-02-26T11:04:26.724Z,1.67
2023-02-26T11:05:26.901Z,1.97
2023-02-26T11:06:27.062Z,1.93
2023-02-26T11:07:27.251Z,1.15
2023-02-26T11:08:27.458Z,2.10
2023-02-26T11:09:27.670Z,2.15
2023-02-26T11:10:27.844Z,1.63
2023-02-26T11:11:28.130Z,1.59
2023-02-26T11:12:28.218Z,1.69
2023-02-26T11:13:28.420Z,1.45
2023-02-26T11:58:36.105Z,2.51
2023-02-26T11:59:36.292Z,2.65
2023-02-26T12:00:36.486Z,1.89
2023-02-26T12:01:36.680Z,2.21
2023-02-26T12:02:36.995Z,1.63
2023-02-26T12:03:37.095Z,1.60
2023-02-26T12:04:37.193Z,1.61
2023-02-26T12:05:37.396Z,1.79
2023-02-26T12:06:37.597Z,2.12
2023-02-26T12:07:37.774Z,1.76
2023-02-26T12:09:38.152Z,1.90
2023-02-26T12:10:38.350Z,1.54
2023-02-26T12:11:38.540Z,1.53
2023-02-26T12:12:38.677Z,1.45
2023-02-26T12:13:38.873Z,1.10
2023-02-26T12:14:39.093Z,1.53
2023-02-26T12:15:39.291Z,1.73
2023-02-26T12:16:39.439Z,1.73
2023-02-26T12:17:39.605Z,1.47
2023-02-26T12:18:39.813Z,1.36
2023-02-26T12:19:40.029Z,1.39
2023-02-26T12:20:40.168Z,2.20
2023-02-26T12:21:40.314Z,2.17
2023-02-26T12:22:40.446Z,2.05
2023-02-26T12:23:40.613Z,1.79
2023-02-26T12:24:40.751Z,1.89
2023-02-26T12:25:40.896Z,1.25
2023-02-26T12:26:41.037Z,1.17
2023-02-26T12:27:41.166Z,1.31
2023-02-26T12:28:41.322Z,1.12
2023-02-26T12:29:41.479Z,1.50
2023-02-26T12:30:41.710Z,1.37
2023-02-26T12:31:41.932Z,1.35
2023-02-26T12:32:42.030Z,1.09
2023-02-26T12:34:42.365Z,1.42
2023-02-26T12:35:42.577Z,1.34
2023-02-26T12:36:48.953Z,1.70
2023-02-26T12:38:43.010Z,1.38
2023-02-26T12:56:46.382Z,1.72
2023-02-26T12:58:46.037Z,1.13
2023-02-26T12:59:46.195Z,1.63
2023-02-26T13:00:46.409Z,1.79
2023-02-26T13:01:59.691Z,1.28
2023-02-26T13:02:47.621Z,1.27
2023-02-26T13:03:46.758Z,1.57
2023-02-26T13:04:46.866Z,1.66
2023-02-26T13:05:46.970Z,1.58
2023-02-26T13:06:47.112Z,1.68
2023-02-26T13:07:47.252Z,1.25
2023-02-26T13:08:47.381Z,1.46
2023-02-26T13:09:47.503Z,1.75
2023-02-26T13:10:47.628Z,2.09
2023-02-26T13:11:47.761Z,1.79
2023-02-26T13:12:47.878Z,1.84
2023-02-26T13:13:48.017Z,1.62
2023-02-26T13:14:48.164Z,1.54
2023-02-26T13:15:48.274Z,2.19
2023-02-26T13:16:48.438Z,2.19
2023-02-26T13:17:48.559Z,2.00
2023-02-26T13:18:48.671Z,2.35
2023-02-26T13:19:48.846Z,2.74
2023-02-26T14:00:56.122Z,2.16
2023-02-26T14:01:56.307Z,1.75
2023-02-26T14:02:56.436Z,1.59
2023-02-26T14:03:56.607Z,1.54
2023-02-26T14:04:56.777Z,1.69
2023-02-26T14:05:56.966Z,1.69
2023-02-26T14:06:57.160Z,1.55
2023-02-26T14:07:57.332Z,2.03
2023-02-26T14:08:57.513Z,1.94
2023-02-26T14:09:57.677Z,1.23
2023-02-26T14:10:57.836Z,2.14
2023-02-26T14:12:00.508Z,2.24
2023-02-26T14:12:58.179Z,1.63
2023-02-26T14:13:58.322Z,2.36
2023-02-26T14:14:58.471Z,5.08
2023-02-26T14:15:58.625Z,3.40
2023-02-26T14:16:58.810Z,2.23
2023-02-26T14:18:00.775Z,3.63
2023-02-26T14:18:59.024Z,4.30
2023-02-26T14:19:59.149Z,3.85
2023-02-26T14:20:59.306Z,5.21
2023-02-26T14:21:59.439Z,3.53
2023-02-26T14:22:59.585Z,2.64
2023-02-26T14:23:59.715Z,2.70
2023-02-26T14:24:59.846Z,3.51
2023-02-26T14:26:00.038Z,3.37
2023-02-26T14:27:00.261Z,3.88
2023-02-26T14:58:05.951Z,2.43
2023-02-26T14:59:06.102Z,2.47
2023-02-26T15:00:06.259Z,2.71
2023-02-26T15:01:15.937Z,2.23
2023-02-26T15:58:16.003Z,2.56
2023-02-26T15:59:16.132Z,2.56
2023-02-26T16:00:16.322Z,2.47
2023-02-26T16:01:16.559Z,2.46
2023-02-26T16:02:16.691Z,2.89
2023-02-26T16:03:16.912Z,2.48
2023-02-26T16:04:17.010Z,2.49
2023-02-26T16:05:17.182Z,2.32
2023-02-26T16:06:17.353Z,2.01
2023-02-26T16:07:17.556Z,2.64
2023-02-26T16:08:17.707Z,3.51
2023-02-26T16:09:17.927Z,3.38
2023-02-26T16:10:18.024Z,2.88
2023-02-26T16:11:18.188Z,2.55
2023-02-26T16:12:18.368Z,1.89
2023-02-26T16:13:18.527Z,2.80
2023-02-26T16:14:18.727Z,2.41
2023-02-26T16:15:18.892Z,2.43
2023-02-26T16:16:19.153Z,2.36
2023-02-26T16:17:19.238Z,2.27
2023-02-26T16:18:19.445Z,2.44
2023-02-26T16:19:19.645Z,2.80
2023-02-26T16:20:19.857Z,2.73
2023-02-26T16:21:20.056Z,3.07
2023-02-26T16:22:20.262Z,2.25
2023-02-26T16:23:20.446Z,1.89
2023-02-26T16:24:20.625Z,2.30
2023-02-26T16:25:20.844Z,2.44
2023-02-26T16:26:21.022Z,2.19
2023-02-26T16:27:21.890Z,2.51
2023-02-26T16:28:21.396Z,2.80
2023-02-26T16:29:21.559Z,2.06
2023-02-26T16:30:21.699Z,2.39
2023-02-26T16:31:21.922Z,2.52
2023-02-26T16:32:22.158Z,2.76
2023-02-26T16:33:22.166Z,2.46
2023-02-26T16:34:22.307Z,2.42
2023-02-26T16:35:22.436Z,2.12
2023-02-26T16:36:22.601Z,2.23
2023-02-26T16:37:23.162Z,2.79
2023-02-26T16:38:22.993Z,2.55
2023-02-26T16:39:23.162Z,3.34
2023-02-26T16:56:26.087Z,3.29
2023-02-26T16:57:26.241Z,3.78
2023-02-26T16:58:26.417Z,3.63
2023-02-26T16:59:26.496Z,3.77
2023-02-26T17:00:26.658Z,4.40
2023-02-26T17:01:27.154Z,5.25
2023-02-26T17:02:26.992Z,5.28
2023-02-26T17:03:27.156Z,3.76
2023-02-26T17:04:27.286Z,3.63
2023-02-26T17:05:27.461Z,4.42
2023-02-26T17:06:27.675Z,4.99
2023-02-26T17:21:30.348Z,3.64
2023-02-26T17:22:30.511Z,2.93
2023-02-26T17:23:30.664Z,3.04
2023-02-26T17:24:30.825Z,3.84
2023-02-26T17:25:31.017Z,3.90
2023-02-26T17:26:31.193Z,3.31
2023-02-26T17:27:31.327Z,3.37
2023-02-26T17:28:31.519Z,2.87
2023-02-26T17:29:31.754Z,5.08
2023-02-26T17:30:31.905Z,3.68
2023-02-26T17:31:32.412Z,2.73
2023-02-26T17:32:32.278Z,2.77
2023-02-26T17:33:32.433Z,2.73
2023-02-26T17:34:32.580Z,2.40
2023-02-26T17:35:32.715Z,3.03
2023-02-26T17:36:32.872Z,4.05
2023-02-26T17:37:33.026Z,4.91
2023-02-26T17:38:33.173Z,4.91
2023-02-26T17:39:33.316Z,5.34
2023-02-26T17:40:33.449Z,5.89
2023-02-26T17:55:36.039Z,35.27
2023-02-26T17:56:36.262Z,17.16
2023-02-26T17:57:36.514Z,12.80
2023-02-26T17:58:36.745Z,10.51
2023-02-26T17:59:36.963Z,9.46
2023-02-26T18:00:37.173Z,4.98
2023-02-26T18:46:46.095Z,3.02
2023-02-26T18:47:46.290Z,3.22
2023-02-26T18:48:46.498Z,3.31
2023-02-26T18:49:46.725Z,3.50
2023-02-26T18:50:46.920Z,3.85
2023-02-26T19:36:56.048Z,3.60
2023-02-26T19:37:56.235Z,4.09
2023-02-26T19:38:56.436Z,3.13
2023-02-26T19:39:56.621Z,2.91
2023-02-26T19:40:56.792Z,3.75
2023-02-26T19:41:57.002Z,3.70
2023-02-26T20:32:06.161Z,5.34
2023-02-26T20:33:06.360Z,5.32
2023-02-26T21:25:16.056Z,2.40
2023-02-26T21:26:16.211Z,2.31
2023-02-26T21:27:16.396Z,2.01
2023-02-26T21:28:16.562Z,2.43
2023-02-26T21:29:16.743Z,1.91
2023-02-26T21:30:16.913Z,1.91
2023-02-26T21:31:17.089Z,1.86
2023-02-26T21:32:17.304Z,1.91
2023-02-26T21:35:17.804Z,1.94
2023-02-26T22:15:25.982Z,1.84
2023-02-26T22:16:26.212Z,2.00
2023-02-26T23:07:35.980Z,2.14
2023-02-26T23:08:36.197Z,2.31
2023-02-26T23:09:36.394Z,2.50
2023-02-26T23:10:36.600Z,2.21
2023-02-26T23:11:36.777Z,1.72
2023-02-26T23:12:36.997Z,2.09
2023-02-26T23:13:37.218Z,1.93
2023-02-26T23:14:37.433Z,1.91
2023-02-26T23:15:37.644Z,2.17
2023-02-26T23:16:37.893Z,2.25
2023-02-26T23:17:38.043Z,2.32
2023-02-26T23:58:46.015Z,2.25
2023-02-26T23:59:46.214Z,2.05
